Time;durP1;ratioP1;P1;durP2;ratioP2;P2;SDS_P1;SDS_P2;PMS_P1;PMS_P2;Temp;Humidity;BMP_temperature;BMP_pressure;BME280_temperature;BME280_humidity;BME280_pressure;Samples;Min_cycle;Max_cycle;Signal;HPM_P1;HPM_P2
2021/08/21 00:00:36;;;;;;;6.55;4.85;;;;;;;;;;4860948;29;20513;-70
2021/08/21 00:03:03;;;;;;;7.10;5.00;;;;;;;;;;4859782;29;20136;-70
2021/08/21 00:05:30;;;;;;;5.82;4.85;;;;;;;;;;4859906;29;20057;-70
2021/08/21 00:07:56;;;;;;;6.22;5.05;;;;;;;;;;4879458;29;20092;-70
2021/08/21 00:10:24;;;;;;;6.18;5.57;;;;;;;;;;4879322;29;20105;-70
2021/08/21 00:12:51;;;;;;;6.57;5.22;;;;;;;;;;4878988;29;20060;-70
2021/08/21 00:15:19;;;;;;;6.00;5.40;;;;;;;;;;4879623;29;20053;-70
2021/08/21 00:17:46;;;;;;;6.63;6.03;;;;;;;;;;4862113;29;20126;-70
2021/08/21 00:20:13;;;;;;;6.57;5.35;;;;;;;;;;4860763;29;20089;-70
2021/08/21 00:22:40;;;;;;;6.88;5.63;;;;;;;;;;4860578;29;20085;-69
2021/08/21 00:25:07;;;;;;;6.95;5.82;;;;;;;;;;4860714;29;20104;-70
2021/08/21 00:27:34;;;;;;;10.60;5.93;;;;;;;;;;4860483;29;20106;-70
2021/08/21 00:30:01;;;;;;;6.13;5.50;;;;;;;;;;4871400;29;20057;-70
2021/08/21 00:32:27;;;;;;;8.18;6.13;;;;;;;;;;4878890;29;20084;-70
2021/08/21 00:34:54;;;;;;;8.15;5.82;;;;;;;;;;4879090;29;20049;-70
2021/08/21 00:37:20;;;;;;;10.63;6.32;;;;;;;;;;4864941;29;20549;-69
2021/08/21 00:39:47;;;;;;;6.95;6.15;;;;;;;;;;4860241;29;20085;-69
2021/08/21 00:42:13;;;;;;;7.70;6.43;;;;;;;;;;4860149;29;20088;-69
2021/08/21 00:44:40;;;;;;;7.57;6.22;;;;;;;;;;4860348;29;20104;-70
2021/08/21 00:47:15;;;;;;;8.00;5.93;;;;;;;;;;4860529;29;20478;-69
2021/08/21 00:49:49;;;;;;;7.43;6.43;;;;;;;;;;4860302;29;20049;-70
2021/08/21 00:52:19;;;;;;;8.68;7.07;;;;;;;;;;4860007;29;20195;-70
2021/08/21 00:54:46;;;;;;;9.27;6.13;;;;;;;;;;4860134;29;20081;-70
2021/08/21 00:57:13;;;;;;;7.50;6.57;;;;;;;;;;4859995;29;20100;-70
2021/08/21 00:59:41;;;;;;;7.32;6.00;;;;;;;;;;4859935;29;20101;-70
2021/08/21 01:02:09;;;;;;;8.35;6.35;;;;;;;;;;4876067;29;20052;-70
2021/08/21 01:04:37;;;;;;;7.88;6.18;;;;;;;;;;4878534;29;20104;-70
2021/08/21 01:07:10;;;;;;;8.57;6.60;;;;;;;;;;4868065;29;20089;-70
2021/08/21 01:09:38;;;;;;;8.60;7.20;;;;;;;;;;4859929;29;20518;-70
2021/08/21 01:12:05;;;;;;;8.43;6.80;;;;;;;;;;4859752;29;20136;-70
2021/08/21 01:14:32;;;;;;;9.93;6.95;;;;;;;;;;4858402;29;20054;-70
2021/08/21 01:16:59;;;;;;;7.45;6.55;;;;;;;;;;4869834;29;20104;-70
2021/08/21 01:19:26;;;;;;;7.95;5.47;;;;;;;;;;4878269;29;20143;-70
2021/08/21 01:21:52;;;;;;;8.80;6.22;;;;;;;;;;4873595;29;20137;-70
2021/08/21 01:24:19;;;;;;;8.18;6.25;;;;;;;;;;4859055;29;20085;-70
2021/08/21 01:26:53;;;;;;;7.75;6.45;;;;;;;;;;4860198;29;20484;-69
2021/08/21 01:29:20;;;;;;;6.45;5.75;;;;;;;;;;4859606;29;20113;-70
2021/08/21 01:31:47;;;;;;;7.57;6.63;;;;;;;;;;4859460;29;20091;-70
2021/08/21 01:34:14;;;;;;;8.45;6.80;;;;;;;;;;4859758;29;20128;-70
2021/08/21 01:36:46;;;;;;;7.20;6.13;;;;;;;;;;4859625;29;20109;-70
2021/08/21 01:39:14;;;;;;;9.27;7.50;;;;;;;;;;4859451;29;20078;-70
2021/08/21 01:41:42;;;;;;;8.57;7.25;;;;;;;;;;4859370;29;20081;-70
2021/08/21 01:44:13;;;;;;;8.60;6.80;;;;;;;;;;4859597;29;20092;-69
2021/08/21 01:46:39;;;;;;;8.82;7.15;;;;;;;;;;4863457;29;20453;-69
2021/08/21 01:49:09;;;;;;;9.93;7.25;;;;;;;;;;4876848;29;20088;-69
2021/08/21 01:51:40;;;;;;;12.00;6.78;;;;;;;;;;4877832;29;20084;-69
2021/08/21 01:54:09;;;;;;;7.60;6.28;;;;;;;;;;4877911;29;20082;-69
2021/08/21 01:56:49;;;;;;;7.07;6.30;;;;;;;;;;4878002;29;20113;-69
2021/08/21 01:59:26;;;;;;;8.52;6.55;;;;;;;;;;4877945;29;20080;-69
2021/08/21 02:01:53;;;;;;;7.75;5.82;;;;;;;;;;4877900;29;20083;-70
2021/08/21 02:04:20;;;;;;;7.50;6.10;;;;;;;;;;4877930;29;20580;-70
2021/08/21 02:06:47;;;;;;;6.65;6.00;;;;;;;;;;4877855;29;20109;-70
2021/08/21 02:09:16;;;;;;;9.05;6.55;;;;;;;;;;4877752;29;20433;-70
2021/08/21 02:11:44;;;;;;;9.55;6.80;;;;;;;;;;4877694;29;20105;-70
2021/08/21 02:14:11;;;;;;;11.88;6.43;;;;;;;;;;4877980;29;20081;-70
2021/08/21 02:16:37;;;;;;;7.32;6.22;;;;;;;;;;4877883;29;20424;-70
2021/08/21 02:19:04;;;;;;;6.70;5.95;;;;;;;;;;4877739;29;20057;-70
2021/08/21 02:21:31;;;;;;;7.65;6.28;;;;;;;;;;4877758;29;20080;-70
2021/08/21 02:23:58;;;;;;;10.35;6.50;;;;;;;;;;4877238;29;20101;-70
2021/08/21 02:26:26;;;;;;;8.98;6.15;;;;;;;;;;4877809;29;20095;-70
2021/08/21 02:28:55;;;;;;;7.00;5.72;;;;;;;;;;4877706;29;20076;-70
2021/08/21 02:31:22;;;;;;;7.72;6.70;;;;;;;;;;4896571;23;20076;-66
2021/08/21 02:33:49;;;;;;;11.40;7.28;;;;;;;;;;4915375;29;20513;-66
2021/08/21 02:36:15;;;;;;;7.85;6.53;;;;;;;;;;4918581;29;20571;-66
2021/08/21 02:38:44;;;;;;;7.55;6.13;;;;;;;;;;4918348;29;20056;-66
2021/08/21 02:41:11;;;;;;;7.03;6.15;;;;;;;;;;4918369;29;20482;-66
2021/08/21 02:43:38;;;;;;;6.93;6.22;;;;;;;;;;4918434;29;20087;-67
2021/08/21 02:46:04;;;;;;;9.32;6.40;;;;;;;;;;4918625;29;20076;-66
2021/08/21 02:48:31;;;;;;;9.70;6.43;;;;;;;;;;4918356;29;20048;-67
2021/08/21 02:50:57;;;;;;;8.63;6.50;;;;;;;;;;4918353;29;20072;-66
2021/08/21 02:53:24;;;;;;;7.97;6.20;;;;;;;;;;4918152;29;20102;-66
2021/08/21 02:55:50;;;;;;;8.02;6.05;;;;;;;;;;4918329;29;20091;-66
2021/08/21 02:58:17;;;;;;;7.60;6.60;;;;;;;;;;4918246;29;20082;-66
2021/08/21 03:00:44;;;;;;;8.57;6.50;;;;;;;;;;4917977;29;20111;-66
2021/08/21 03:03:11;;;;;;;10.23;6.32;;;;;;;;;;4918125;29;20091;-66
2021/08/21 03:05:38;;;;;;;7.88;5.97;;;;;;;;;;4918073;29;20047;-66
2021/08/21 03:08:05;;;;;;;10.02;7.03;;;;;;;;;;4917905;29;20052;-66
2021/08/21 03:10:32;;;;;;;6.97;6.28;;;;;;;;;;4914159;29;20076;-66
2021/08/21 03:12:59;;;;;;;9.45;6.05;;;;;;;;;;4899117;29;20060;-66
2021/08/21 03:15:26;;;;;;;6.97;6.28;;;;;;;;;;4899070;29;20108;-66
2021/08/21 03:17:53;;;;;;;7.28;6.57;;;;;;;;;;4898936;29;20048;-66
2021/08/21 03:20:20;;;;;;;8.18;6.78;;;;;;;;;;4898848;29;20063;-66
2021/08/21 03:22:47;;;;;;;7.38;6.57;;;;;;;;;;4898984;29;20162;-66
2021/08/21 03:25:13;;;;;;;7.80;6.63;;;;;;;;;;4897896;29;20094;-66
2021/08/21 03:27:40;;;;;;;7.10;6.28;;;;;;;;;;4898894;29;20080;-66
2021/08/21 03:30:07;;;;;;;7.25;6.55;;;;;;;;;;4898952;29;20079;-66
2021/08/21 03:32:34;;;;;;;7.95;6.00;;;;;;;;;;4898540;29;20456;-66
2021/08/21 03:35:01;;;;;;;7.57;6.88;;;;;;;;;;4898896;29;20491;-66
2021/08/21 03:37:27;;;;;;;8.55;6.88;;;;;;;;;;4898545;29;20075;-66
2021/08/21 03:39:54;;;;;;;9.15;6.80;;;;;;;;;;4898842;29;20080;-66
2021/08/21 03:42:21;;;;;;;8.32;6.53;;;;;;;;;;4898480;29;20099;-66
2021/08/21 03:44:47;;;;;;;7.50;6.70;;;;;;;;;;4898514;29;20056;-66
2021/08/21 03:47:14;;;;;;;8.23;6.45;;;;;;;;;;4897457;29;20056;-66
2021/08/21 03:49:40;;;;;;;9.15;6.68;;;;;;;;;;4898441;29;20099;-66
2021/08/21 03:52:07;;;;;;;8.30;6.90;;;;;;;;;;4898397;29;20080;-66
2021/08/21 03:54:33;;;;;;;9.07;6.80;;;;;;;;;;4898308;29;20083;-66
2021/08/21 03:57:00;;;;;;;7.43;6.65;;;;;;;;;;4899255;29;20052;-66
2021/08/21 03:59:26;;;;;;;7.47;6.57;;;;;;;;;;4936028;29;20130;-66
2021/08/21 04:01:53;;;;;;;7.20;6.25;;;;;;;;;;4935806;29;20087;-66
2021/08/21 04:04:19;;;;;;;8.05;6.25;;;;;;;;;;4936155;29;20106;-66
2021/08/21 04:06:46;;;;;;;9.02;5.97;;;;;;;;;;4935906;29;20082;-66
2021/08/21 04:09:12;;;;;;;8.30;6.78;;;;;;;;;;4935731;29;20487;-66
2021/08/21 04:11:39;;;;;;;9.52;6.13;;;;;;;;;;4935701;29;20044;-66
2021/08/21 04:14:06;;;;;;;7.70;6.47;;;;;;;;;;4936013;29;20114;-66
2021/08/21 04:16:32;;;;;;;7.95;6.35;;;;;;;;;;4935663;29;20518;-66
2021/08/21 04:18:59;;;;;;;8.00;6.82;;;;;;;;;;4935632;29;20188;-66
2021/08/21 04:21:25;;;;;;;8.80;7.07;;;;;;;;;;4935338;29;20486;-66
2021/08/21 04:23:53;;;;;;;10.10;6.95;;;;;;;;;;4935686;29;20055;-66
2021/08/21 04:26:20;;;;;;;8.20;7.38;;;;;;;;;;4935871;29;20075;-66
2021/08/21 04:28:47;;;;;;;9.27;6.35;;;;;;;;;;4924346;29;20056;-66
2021/08/21 04:31:13;;;;;;;8.25;7.32;;;;;;;;;;4921211;23;20154;-67
2021/08/21 04:33:40;;;;;;;8.15;6.57;;;;;;;;;;4897727;29;20089;-66
2021/08/21 04:36:06;;;;;;;8.27;6.85;;;;;;;;;;4897885;29;20088;-66
2021/08/21 04:38:33;;;;;;;7.85;6.65;;;;;;;;;;4897369;29;20131;-66
2021/08/21 04:41:00;;;;;;;8.30;6.93;;;;;;;;;;4897533;29;20084;-66
2021/08/21 04:43:26;;;;;;;9.50;6.72;;;;;;;;;;4897436;29;20095;-66
2021/08/21 04:45:53;;;;;;;6.70;6.10;;;;;;;;;;4897614;29;20080;-66
2021/08/21 04:48:20;;;;;;;7.80;6.35;;;;;;;;;;4897310;29;20100;-65
2021/08/21 04:50:46;;;;;;;9.30;7.30;;;;;;;;;;4897238;29;20099;-66
2021/08/21 04:53:13;;;;;;;6.50;5.85;;;;;;;;;;4897311;29;20080;-66
2021/08/21 04:55:39;;;;;;;8.07;7.05;;;;;;;;;;4893426;29;20085;-66
2021/08/21 04:58:06;;;;;;;9.15;6.05;;;;;;;;;;4878404;29;20099;-66
2021/08/21 05:00:32;;;;;;;11.52;7.32;;;;;;;;;;4878442;29;20124;-66
2021/08/21 05:02:59;;;;;;;8.13;6.45;;;;;;;;;;4878443;29;20462;-65
2021/08/21 05:05:26;;;;;;;10.88;6.75;;;;;;;;;;4878389;29;20092;-66
2021/08/21 05:07:53;;;;;;;7.75;6.47;;;;;;;;;;4878343;29;20049;-65
2021/08/21 05:10:20;;;;;;;8.65;6.85;;;;;;;;;;4878413;29;20053;-66
2021/08/21 05:12:47;;;;;;;9.55;6.82;;;;;;;;;;4878205;29;20077;-66
2021/08/21 05:15:13;;;;;;;10.95;7.57;;;;;;;;;;4878455;29;20049;-66
2021/08/21 05:17:40;;;;;;;10.70;7.40;;;;;;;;;;4878047;29;20057;-66
2021/08/21 05:20:14;;;;;;;7.55;6.75;;;;;;;;;;4878309;29;20512;-66
2021/08/21 05:25:12;;;;;;;7.53;5.78;;;;;;;;;;4895051;29;20094;-66
2021/08/21 05:27:39;;;;;;;7.68;6.43;;;;;;;;;;4894458;29;20097;-66
2021/08/21 05:30:06;;;;;;;6.93;6.18;;;;;;;;;;4894780;29;20091;-66
2021/08/21 05:32:35;;;;;;;6.78;5.88;;;;;;;;;;4893394;29;20063;-65
2021/08/21 05:35:02;;;;;;;6.82;5.70;;;;;;;;;;4890682;29;20088;-66
2021/08/21 05:37:28;;;;;;;6.93;5.70;;;;;;;;;;4876075;29;20084;-69
2021/08/21 05:39:55;;;;;;;10.15;6.05;;;;;;;;;;4876259;29;20433;-65
2021/08/21 05:42:21;;;;;;;7.47;5.85;;;;;;;;;;4876806;29;20084;-65
2021/08/21 05:44:48;;;;;;;7.55;5.38;;;;;;;;;;4884620;29;20501;-65
2021/08/21 05:47:14;;;;;;;7.75;5.47;;;;;;;;;;4913216;29;20591;-65
2021/08/21 05:49:41;;;;;;;7.65;5.93;;;;;;;;;;4903869;29;20091;-65
2021/08/21 05:52:08;;;;;;;8.13;5.93;;;;;;;;;;4877931;29;20049;-65
2021/08/21 05:54:34;;;;;;;7.75;6.00;;;;;;;;;;4875887;29;20311;-66
2021/08/21 05:57:01;;;;;;;7.38;5.82;;;;;;;;;;4875990;29;20504;-66
2021/08/21 05:59:31;;;;;;;6.55;5.82;;;;;;;;;;4875705;29;20509;-66
2021/08/21 06:01:59;;;;;;;8.80;5.65;;;;;;;;;;4884314;29;20057;-66
2021/08/21 06:04:25;;;;;;;8.18;5.88;;;;;;;;;;4894883;29;20060;-66
2021/08/21 06:06:52;;;;;;;8.90;6.05;;;;;;;;;;4894638;29;20096;-66
2021/08/21 06:09:20;;;;;;;11.50;5.75;;;;;;;;;;4895460;29;20354;-66
2021/08/21 06:11:46;;;;;;;6.60;5.43;;;;;;;;;;4898019;29;20048;-66
2021/08/21 06:14:13;;;;;;;6.28;5.30;;;;;;;;;;4897845;29;20060;-67
2021/08/21 06:16:40;;;;;;;8.20;5.30;;;;;;;;;;4875806;29;20096;-65
2021/08/21 06:19:08;;;;;;;8.57;5.30;;;;;;;;;;4888692;29;20056;-66
2021/08/21 06:21:34;;;;;;;6.13;5.18;;;;;;;;;;4884296;29;20079;-66
2021/08/21 06:24:01;;;;;;;7.78;5.38;;;;;;;;;;4887271;29;20087;-66
2021/08/21 06:26:28;;;;;;;7.00;5.55;;;;;;;;;;4884283;29;20117;-66
2021/08/21 06:28:55;;;;;;;6.75;5.53;;;;;;;;;;4883813;29;20436;-66
2021/08/21 06:31:21;;;;;;;6.68;5.65;;;;;;;;;;4885588;29;20136;-66
2021/08/21 06:33:48;;;;;;;9.77;6.13;;;;;;;;;;4892367;29;20067;-66
2021/08/21 06:36:15;;;;;;;6.38;5.78;;;;;;;;;;4897540;29;20053;-64
2021/08/21 06:38:41;;;;;;;8.00;5.95;;;;;;;;;;4894678;29;20139;-63
2021/08/21 06:41:08;;;;;;;6.05;5.45;;;;;;;;;;4892707;29;20114;-62
2021/08/21 06:43:34;;;;;;;6.63;5.70;;;;;;;;;;4878837;29;20128;-62
2021/08/21 06:46:01;;;;;;;7.85;5.82;;;;;;;;;;4878523;29;20111;-63
2021/08/21 06:48:29;;;;;;;7.28;5.97;;;;;;;;;;4882162;29;20056;-63
2021/08/21 06:50:55;;;;;;;8.15;5.50;;;;;;;;;;4895459;29;20493;-64
2021/08/21 06:53:24;;;;;;;8.57;6.18;;;;;;;;;;4886999;29;20045;-66
2021/08/21 06:55:51;;;;;;;6.00;5.15;;;;;;;;;;4895264;29;20048;-65
2021/08/21 06:58:21;;;;;;;7.75;5.78;;;;;;;;;;4892102;29;20080;-63
2021/08/21 07:00:49;;;;;;;6.03;5.43;;;;;;;;;;4889683;29;20049;-63
2021/08/21 07:03:16;;;;;;;8.15;5.57;;;;;;;;;;4890727;29;20053;-65
2021/08/21 07:05:42;;;;;;;7.22;5.53;;;;;;;;;;4891994;29;20056;-64
2021/08/21 07:08:09;;;;;;;7.13;5.63;;;;;;;;;;4885914;29;20432;-64
2021/08/21 07:10:36;;;;;;;6.78;5.38;;;;;;;;;;4881176;29;20061;-64
2021/08/21 07:13:02;;;;;;;9.95;5.90;;;;;;;;;;4879922;29;20508;-66
2021/08/21 07:15:29;;;;;;;6.57;5.20;;;;;;;;;;4879731;29;20131;-66
2021/08/21 07:17:55;;;;;;;8.18;5.30;;;;;;;;;;4891458;29;20077;-63
2021/08/21 07:20:22;;;;;;;6.65;5.15;;;;;;;;;;4877095;29;20148;-64
2021/08/21 07:22:48;;;;;;;7.10;6.15;;;;;;;;;;4877716;29;20088;-63
2021/08/21 07:25:15;;;;;;;5.45;4.80;;;;;;;;;;4877740;29;20512;-64
2021/08/21 07:27:42;;;;;;;9.00;5.13;;;;;;;;;;4878119;29;20076;-64
2021/08/21 07:30:09;;;;;;;5.82;4.65;;;;;;;;;;4889648;29;20544;-64
2021/08/21 07:32:36;;;;;;;5.55;4.70;;;;;;;;;;4885221;29;20053;-65
2021/08/21 07:35:03;;;;;;;5.50;4.53;;;;;;;;;;4896906;29;20099;-64
2021/08/21 07:37:31;;;;;;;8.40;4.80;;;;;;;;;;4892446;29;20052;-65
2021/08/21 07:39:57;;;;;;;9.15;4.63;;;;;;;;;;4883542;29;20084;-64
2021/08/21 07:42:24;;;;;;;5.57;4.60;;;;;;;;;;4880192;29;20057;-64
2021/08/21 07:44:50;;;;;;;6.72;4.40;;;;;;;;;;4882453;29;20084;-65
2021/08/21 07:47:17;;;;;;;5.90;4.55;;;;;;;;;;4886042;29;20057;-68
2021/08/21 07:49:45;;;;;;;6.63;4.38;;;;;;;;;;4887532;29;20076;-68
2021/08/21 07:52:11;;;;;;;5.50;4.28;;;;;;;;;;4909595;29;20053;-66
